sensor_id;sensor_type;location;lat;lon;timestamp;P1;durP1;ratioP1;P2;durP2;ratioP2
12302;SDS011;6214;48.012;7.862;2023-05-07T00:02:01;4.80;;;2.50;;
12302;SDS011;6214;48.012;7.862;2023-05-07T00:04:28;5.30;;;2.50;;
12302;SDS011;6214;48.012;7.862;2023-05-07T00:06:55;5.05;;;2.40;;
12302;SDS011;6214;48.012;7.862;2023-05-07T00:09:22;5.23;;;2.10;;
12302;SDS011;6214;48.012;7.862;2023-05-07T00:11:49;5.20;;;2.00;;
12302;SDS011;6214;48.012;7.862;2023-05-07T00:14:16;5.27;;;2.30;;
12302;SDS011;6214;48.012;7.862;2023-05-07T00:16:43;5.97;;;2.20;;
12302;SDS011;6214;48.012;7.862;2023-05-07T00:19:10;5.30;;;2.00;;
12302;SDS011;6214;48.012;7.862;2023-05-07T00:21:37;5.53;;;2.40;;
12302;SDS011;6214;48.012;7.862;2023-05-07T00:24:05;4.43;;;2.10;;
12302;SDS011;6214;48.012;7.862;2023-05-07T00:26:32;5.60;;;2.10;;
12302;SDS011;6214;48.012;7.862;2023-05-07T00:28:59;5.18;;;2.80;;
12302;SDS011;6214;48.012;7.862;2023-05-07T00:31:26;5.00;;;2.40;;
12302;SDS011;6214;48.012;7.862;2023-05-07T00:33:53;4.88;;;2.20;;
12302;SDS011;6214;48.012;7.862;2023-05-07T00:36:20;6.93;;;2.40;;
12302;SDS011;6214;48.012;7.862;2023-05-07T00:38:47;4.80;;;2.30;;
12302;SDS011;6214;48.012;7.862;2023-05-07T00:41:14;6.55;;;2.65;;
12302;SDS011;6214;48.012;7.862;2023-05-07T00:43:41;5.93;;;2.80;;
12302;SDS011;6214;48.012;7.862;2023-05-07T00:46:08;5.80;;;2.60;;
12302;SDS011;6214;48.012;7.862;2023-05-07T00:48:36;5.43;;;2.70;;
12302;SDS011;6214;48.012;7.862;2023-05-07T00:51:03;4.80;;;2.50;;
12302;SDS011;6214;48.012;7.862;2023-05-07T00:53:30;6.70;;;2.50;;
12302;SDS011;6214;48.012;7.862;2023-05-07T00:55:58;6.00;;;2.80;;
12302;SDS011;6214;48.012;7.862;2023-05-07T00:58:27;5.88;;;2.70;;
12302;SDS011;6214;48.012;7.862;2023-05-07T01:00:54;5.05;;;2.45;;
12302;SDS011;6214;48.012;7.862;2023-05-07T01:03:21;5.20;;;2.50;;
12302;SDS011;6214;48.012;7.862;2023-05-07T01:05:48;5.20;;;2.60;;
12302;SDS011;6214;48.012;7.862;2023-05-07T01:08:17;5.80;;;2.60;;
12302;SDS011;6214;48.012;7.862;2023-05-07T01:10:45;5.20;;;2.67;;
12302;SDS011;6214;48.012;7.862;2023-05-07T01:13:13;4.80;;;2.20;;
12302;SDS011;6214;48.012;7.862;2023-05-07T01:15:40;5.75;;;2.20;;
12302;SDS011;6214;48.012;7.862;2023-05-07T01:18:08;5.00;;;2.60;;
12302;SDS011;6214;48.012;7.862;2023-05-07T01:20:36;5.30;;;2.70;;
12302;SDS011;6214;48.012;7.862;2023-05-07T01:23:03;6.13;;;2.20;;
12302;SDS011;6214;48.012;7.862;2023-05-07T01:25:31;6.25;;;2.70;;
12302;SDS011;6214;48.012;7.862;2023-05-07T01:27:59;5.30;;;2.50;;
12302;SDS011;6214;48.012;7.862;2023-05-07T01:30:27;5.15;;;2.40;;
12302;SDS011;6214;48.012;7.862;2023-05-07T01:35:40;6.50;;;2.83;;
12302;SDS011;6214;48.012;7.862;2023-05-07T01:38:10;5.80;;;2.53;;
12302;SDS011;6214;48.012;7.862;2023-05-07T01:40:37;5.40;;;2.40;;
12302;SDS011;6214;48.012;7.862;2023-05-07T01:43:05;5.70;;;2.60;;
12302;SDS011;6214;48.012;7.862;2023-05-07T01:45:32;6.35;;;3.00;;
12302;SDS011;6214;48.012;7.862;2023-05-07T01:48:02;6.03;;;2.75;;
12302;SDS011;6214;48.012;7.862;2023-05-07T01:50:30;5.10;;;2.70;;
12302;SDS011;6214;48.012;7.862;2023-05-07T01:52:58;6.28;;;3.03;;
12302;SDS011;6214;48.012;7.862;2023-05-07T01:55:25;5.80;;;2.80;;
12302;SDS011;6214;48.012;7.862;2023-05-07T01:57:53;5.22;;;2.50;;
12302;SDS011;6214;48.012;7.862;2023-05-07T02:00:20;4.90;;;2.60;;
12302;SDS011;6214;48.012;7.862;2023-05-07T02:02:47;4.93;;;2.55;;
12302;SDS011;6214;48.012;7.862;2023-05-07T02:05:14;5.03;;;2.50;;
12302;SDS011;6214;48.012;7.862;2023-05-07T02:07:41;5.07;;;2.40;;
12302;SDS011;6214;48.012;7.862;2023-05-07T02:10:08;6.72;;;2.50;;
12302;SDS011;6214;48.012;7.862;2023-05-07T02:12:36;7.70;;;3.00;;
12302;SDS011;6214;48.012;7.862;2023-05-07T02:15:03;7.32;;;2.80;;
12302;SDS011;6214;48.012;7.862;2023-05-07T02:17:31;5.70;;;2.50;;
12302;SDS011;6214;48.012;7.862;2023-05-07T02:19:59;5.00;;;2.40;;
12302;SDS011;6214;48.012;7.862;2023-05-07T02:22:26;5.22;;;2.63;;
12302;SDS011;6214;48.012;7.862;2023-05-07T02:24:53;4.80;;;2.70;;
12302;SDS011;6214;48.012;7.862;2023-05-07T02:27:20;5.50;;;2.60;;
12302;SDS011;6214;48.012;7.862;2023-05-07T02:29:47;5.28;;;2.50;;
12302;SDS011;6214;48.012;7.862;2023-05-07T02:32:14;5.18;;;2.28;;
12302;SDS011;6214;48.012;7.862;2023-05-07T02:34:41;4.90;;;2.38;;
12302;SDS011;6214;48.012;7.862;2023-05-07T02:37:08;5.50;;;2.22;;
12302;SDS011;6214;48.012;7.862;2023-05-07T02:39:35;4.72;;;2.30;;
12302;SDS011;6214;48.012;7.862;2023-05-07T02:42:03;6.50;;;2.40;;
12302;SDS011;6214;48.012;7.862;2023-05-07T02:44:30;5.25;;;2.40;;
12302;SDS011;6214;48.012;7.862;2023-05-07T02:46:57;6.25;;;2.55;;
12302;SDS011;6214;48.012;7.862;2023-05-07T02:49:24;5.60;;;2.40;;
12302;SDS011;6214;48.012;7.862;2023-05-07T02:51:51;5.60;;;2.50;;
12302;SDS011;6214;48.012;7.862;2023-05-07T02:54:18;6.90;;;2.50;;
12302;SDS011;6214;48.012;7.862;2023-05-07T02:56:45;5.30;;;2.30;;
12302;SDS011;6214;48.012;7.862;2023-05-07T02:59:12;5.10;;;2.40;;
12302;SDS011;6214;48.012;7.862;2023-05-07T03:01:39;5.40;;;2.70;;
12302;SDS011;6214;48.012;7.862;2023-05-07T03:04:08;4.90;;;2.40;;
12302;SDS011;6214;48.012;7.862;2023-05-07T03:06:35;4.80;;;2.50;;
12302;SDS011;6214;48.012;7.862;2023-05-07T03:09:02;5.53;;;2.38;;
12302;SDS011;6214;48.012;7.862;2023-05-07T03:11:29;4.60;;;2.22;;
12302;SDS011;6214;48.012;7.862;2023-05-07T03:13:56;5.55;;;2.30;;
12302;SDS011;6214;48.012;7.862;2023-05-07T03:16:23;5.00;;;2.40;;
12302;SDS011;6214;48.012;7.862;2023-05-07T03:18:50;6.00;;;2.47;;
12302;SDS011;6214;48.012;7.862;2023-05-07T03:21:18;5.00;;;2.30;;
12302;SDS011;6214;48.012;7.862;2023-05-07T03:23:45;5.60;;;2.47;;
12302;SDS011;6214;48.012;7.862;2023-05-07T03:26:12;6.20;;;2.37;;
12302;SDS011;6214;48.012;7.862;2023-05-07T03:28:39;5.43;;;2.50;;
12302;SDS011;6214;48.012;7.862;2023-05-07T03:31:06;6.60;;;2.70;;
12302;SDS011;6214;48.012;7.862;2023-05-07T03:33:33;5.40;;;2.50;;
12302;SDS011;6214;48.012;7.862;2023-05-07T03:36:01;4.60;;;2.20;;
12302;SDS011;6214;48.012;7.862;2023-05-07T03:38:28;4.82;;;2.20;;
12302;SDS011;6214;48.012;7.862;2023-05-07T03:40:55;4.70;;;2.25;;
12302;SDS011;6214;48.012;7.862;2023-05-07T03:43:22;5.50;;;2.20;;
12302;SDS011;6214;48.012;7.862;2023-05-07T03:45:49;5.57;;;2.65;;
12302;SDS011;6214;48.012;7.862;2023-05-07T03:48:16;5.30;;;2.45;;
12302;SDS011;6214;48.012;7.862;2023-05-07T03:50:43;5.80;;;2.50;;
12302;SDS011;6214;48.012;7.862;2023-05-07T03:53:10;5.30;;;2.30;;
12302;SDS011;6214;48.012;7.862;2023-05-07T03:55:37;5.40;;;2.30;;
12302;SDS011;6214;48.012;7.862;2023-05-07T03:58:05;5.13;;;2.30;;
12302;SDS011;6214;48.012;7.862;2023-05-07T04:00:32;5.20;;;2.10;;
12302;SDS011;6214;48.012;7.862;2023-05-07T04:03:03;4.95;;;2.38;;
12302;SDS011;6214;48.012;7.862;2023-05-07T04:05:31;4.60;;;2.30;;
12302;SDS011;6214;48.012;7.862;2023-05-07T04:07:58;4.88;;;2.33;;
12302;SDS011;6214;48.012;7.862;2023-05-07T04:10:25;6.72;;;2.80;;
12302;SDS011;6214;48.012;7.862;2023-05-07T04:12:54;4.95;;;2.55;;
12302;SDS011;6214;48.012;7.862;2023-05-07T04:15:21;5.70;;;2.43;;
12302;SDS011;6214;48.012;7.862;2023-05-07T04:17:49;4.60;;;2.10;;
12302;SDS011;6214;48.012;7.862;2023-05-07T04:20:16;4.40;;;2.10;;
12302;SDS011;6214;48.012;7.862;2023-05-07T04:22:43;5.05;;;2.30;;
12302;SDS011;6214;48.012;7.862;2023-05-07T04:25:11;5.03;;;2.45;;
12302;SDS011;6214;48.012;7.862;2023-05-07T04:27:38;4.47;;;2.00;;
12302;SDS011;6214;48.012;7.862;2023-05-07T04:30:05;4.80;;;2.13;;
12302;SDS011;6214;48.012;7.862;2023-05-07T04:32:33;4.60;;;1.80;;
12302;SDS011;6214;48.012;7.862;2023-05-07T04:35:00;5.03;;;2.00;;
12302;SDS011;6214;48.012;7.862;2023-05-07T04:37:27;4.50;;;2.10;;
12302;SDS011;6214;48.012;7.862;2023-05-07T04:39:54;4.80;;;2.20;;
12302;SDS011;6214;48.012;7.862;2023-05-07T04:42:21;4.78;;;2.20;;
12302;SDS011;6214;48.012;7.862;2023-05-07T04:44:52;4.70;;;2.10;;
12302;SDS011;6214;48.012;7.862;2023-05-07T04:47:19;4.95;;;2.05;;
12302;SDS011;6214;48.012;7.862;2023-05-07T04:49:46;5.20;;;2.00;;
12302;SDS011;6214;48.012;7.862;2023-05-07T04:52:13;4.70;;;2.00;;
12302;SDS011;6214;48.012;7.862;2023-05-07T04:54:41;5.35;;;2.10;;
12302;SDS011;6214;48.012;7.862;2023-05-07T04:57:08;5.10;;;1.90;;
12302;SDS011;6214;48.012;7.862;2023-05-07T04:59:35;4.88;;;2.30;;
12302;SDS011;6214;48.012;7.862;2023-05-07T05:02:02;4.70;;;2.20;;
12302;SDS011;6214;48.012;7.862;2023-05-07T05:04:30;4.53;;;1.83;;
12302;SDS011;6214;48.012;7.862;2023-05-07T05:06:57;5.65;;;2.15;;
12302;SDS011;6214;48.012;7.862;2023-05-07T05:09:24;5.10;;;2.10;;
12302;SDS011;6214;48.012;7.862;2023-05-07T05:11:51;4.80;;;2.13;;
12302;SDS011;6214;48.012;7.862;2023-05-07T05:14:18;4.70;;;2.08;;
12302;SDS011;6214;48.012;7.862;2023-05-07T05:16:46;4.70;;;1.95;;
12302;SDS011;6214;48.012;7.862;2023-05-07T05:19:13;5.30;;;2.22;;
12302;SDS011;6214;48.012;7.862;2023-05-07T05:21:40;5.13;;;2.10;;
12302;SDS011;6214;48.012;7.862;2023-05-07T05:24:07;5.15;;;2.00;;
12302;SDS011;6214;48.012;7.862;2023-05-07T05:26:34;5.20;;;2.15;;
12302;SDS011;6214;48.012;7.862;2023-05-07T05:29:01;4.30;;;2.10;;
12302;SDS011;6214;48.012;7.862;2023-05-07T05:31:29;4.83;;;2.10;;
12302;SDS011;6214;48.012;7.862;2023-05-07T05:33:56;4.50;;;2.10;;
12302;SDS011;6214;48.012;7.862;2023-05-07T05:36:23;4.67;;;2.10;;
12302;SDS011;6214;48.012;7.862;2023-05-07T05:38:50;4.50;;;2.10;;
12302;SDS011;6214;48.012;7.862;2023-05-07T05:41:17;5.00;;;1.98;;
12302;SDS011;6214;48.012;7.862;2023-05-07T05:43:44;5.88;;;2.10;;
12302;SDS011;6214;48.012;7.862;2023-05-07T05:46:11;4.80;;;2.20;;
12302;SDS011;6214;48.012;7.862;2023-05-07T05:48:38;5.60;;;2.20;;
12302;SDS011;6214;48.012;7.862;2023-05-07T05:51:05;4.50;;;1.95;;
12302;SDS011;6214;48.012;7.862;2023-05-07T05:53:32;5.65;;;2.40;;
12302;SDS011;6214;48.012;7.862;2023-05-07T05:55:59;4.70;;;2.00;;
12302;SDS011;6214;48.012;7.862;2023-05-07T05:58:26;5.85;;;2.17;;
12302;SDS011;6214;48.012;7.862;2023-05-07T06:00:53;5.50;;;1.92;;
12302;SDS011;6214;48.012;7.862;2023-05-07T06:03:21;5.10;;;2.00;;
12302;SDS011;6214;48.012;7.862;2023-05-07T06:05:48;4.63;;;2.20;;
12302;SDS011;6214;48.012;7.862;2023-05-07T06:08:15;4.93;;;1.87;;
12302;SDS011;6214;48.012;7.862;2023-05-07T06:10:42;4.80;;;2.10;;
12302;SDS011;6214;48.012;7.862;2023-05-07T06:13:09;4.90;;;2.10;;
12302;SDS011;6214;48.012;7.862;2023-05-07T06:15:36;5.70;;;2.38;;
12302;SDS011;6214;48.012;7.862;2023-05-07T06:18:03;5.28;;;2.10;;
12302;SDS011;6214;48.012;7.862;2023-05-07T06:20:30;5.20;;;2.30;;
12302;SDS011;6214;48.012;7.862;2023-05-07T06:22:58;6.60;;;2.72;;
12302;SDS011;6214;48.012;7.862;2023-05-07T06:25:24;5.80;;;2.47;;
12302;SDS011;6214;48.012;7.862;2023-05-07T06:27:51;4.50;;;2.30;;
12302;SDS011;6214;48.012;7.862;2023-05-07T06:30:18;5.07;;;2.50;;
12302;SDS011;6214;48.012;7.862;2023-05-07T06:32:45;5.00;;;2.60;;
12302;SDS011;6214;48.012;7.862;2023-05-07T06:35:13;5.60;;;2.90;;
12302;SDS011;6214;48.012;7.862;2023-05-07T06:37:40;5.47;;;3.00;;
12302;SDS011;6214;48.012;7.862;2023-05-07T06:40:09;5.20;;;2.60;;
12302;SDS011;6214;48.012;7.862;2023-05-07T06:42:37;5.07;;;2.72;;
12302;SDS011;6214;48.012;7.862;2023-05-07T06:45:04;5.70;;;2.90;;
12302;SDS011;6214;48.012;7.862;2023-05-07T06:47:31;6.30;;;2.50;;
12302;SDS011;6214;48.012;7.862;2023-05-07T06:49:58;6.13;;;2.80;;
12302;SDS011;6214;48.012;7.862;2023-05-07T06:52:25;5.40;;;2.80;;
12302;SDS011;6214;48.012;7.862;2023-05-07T06:54:52;5.28;;;2.75;;
12302;SDS011;6214;48.012;7.862;2023-05-07T06:57:19;5.50;;;2.60;;
12302;SDS011;6214;48.012;7.862;2023-05-07T06:59:46;6.13;;;2.75;;
12302;SDS011;6214;48.012;7.862;2023-05-07T07:02:13;5.20;;;2.80;;
12302;SDS011;6214;48.012;7.862;2023-05-07T07:04:43;5.63;;;2.70;;
12302;SDS011;6214;48.012;7.862;2023-05-07T07:07:11;5.30;;;2.60;;
12302;SDS011;6214;48.012;7.862;2023-05-07T07:09:38;5.18;;;2.80;;
12302;SDS011;6214;48.012;7.862;2023-05-07T07:12:05;5.20;;;2.70;;
12302;SDS011;6214;48.012;7.862;2023-05-07T07:14:32;5.07;;;2.55;;
12302;SDS011;6214;48.012;7.862;2023-05-07T07:16:59;4.78;;;2.50;;
12302;SDS011;6214;48.012;7.862;2023-05-07T07:19:26;4.60;;;2.50;;
12302;SDS011;6214;48.012;7.862;2023-05-07T07:21:53;4.80;;;2.40;;
12302;SDS011;6214;48.012;7.862;2023-05-07T07:24:20;4.60;;;2.20;;
12302;SDS011;6214;48.012;7.862;2023-05-07T07:26:48;4.90;;;2.30;;
12302;SDS011;6214;48.012;7.862;2023-05-07T07:29:14;4.47;;;2.00;;
12302;SDS011;6214;48.012;7.862;2023-05-07T07:31:42;4.90;;;2.40;;
12302;SDS011;6214;48.012;7.862;2023-05-07T07:34:09;4.57;;;2.00;;
12302;SDS011;6214;48.012;7.862;2023-05-07T07:36:36;5.72;;;2.50;;
12302;SDS011;6214;48.012;7.862;2023-05-07T07:39:12;5.10;;;2.50;;
12302;SDS011;6214;48.012;7.862;2023-05-07T07:41:39;4.80;;;2.20;;
12302;SDS011;6214;48.012;7.862;2023-05-07T07:44:06;4.57;;;2.00;;
12302;SDS011;6214;48.012;7.862;2023-05-07T07:46:35;4.60;;;2.10;;
12302;SDS011;6214;48.012;7.862;2023-05-07T07:49:02;4.80;;;2.20;;
12302;SDS011;6214;48.012;7.862;2023-05-07T07:51:29;4.53;;;2.00;;
12302;SDS011;6214;48.012;7.862;2023-05-07T07:53:56;4.70;;;2.20;;
12302;SDS011;6214;48.012;7.862;2023-05-07T07:56:24;4.50;;;2.10;;
12302;SDS011;6214;48.012;7.862;2023-05-07T07:58:51;4.40;;;2.00;;
12302;SDS011;6214;48.012;7.862;2023-05-07T08:01:18;4.63;;;1.90;;
12302;SDS011;6214;48.012;7.862;2023-05-07T08:03:46;5.60;;;2.30;;
12302;SDS011;6214;48.012;7.862;2023-05-07T08:06:13;4.75;;;2.30;;
12302;SDS011;6214;48.012;7.862;2023-05-07T08:08:40;4.90;;;2.20;;
12302;SDS011;6214;48.012;7.862;2023-05-07T08:11:07;5.60;;;2.38;;
12302;SDS011;6214;48.012;7.862;2023-05-07T08:13:34;5.07;;;2.00;;
12302;SDS011;6214;48.012;7.862;2023-05-07T08:16:02;5.20;;;2.30;;
12302;SDS011;6214;48.012;7.862;2023-05-07T08:18:29;5.20;;;2.17;;
12302;SDS011;6214;48.012;7.862;2023-05-07T08:20:56;5.10;;;2.85;;
12302;SDS011;6214;48.012;7.862;2023-05-07T08:23:23;5.57;;;2.63;;
12302;SDS011;6214;48.012;7.862;2023-05-07T08:25:50;5.03;;;2.60;;
12302;SDS011;6214;48.012;7.862;2023-05-07T08:28:18;5.80;;;2.70;;
12302;SDS011;6214;48.012;7.862;2023-05-07T08:30:46;5.60;;;2.50;;
12302;SDS011;6214;48.012;7.862;2023-05-07T08:33:13;5.03;;;2.70;;
12302;SDS011;6214;48.012;7.862;2023-05-07T08:35:40;5.47;;;2.70;;
12302;SDS011;6214;48.012;7.862;2023-05-07T08:38:07;5.53;;;2.53;;
12302;SDS011;6214;48.012;7.862;2023-05-07T08:40:38;5.20;;;2.70;;
12302;SDS011;6214;48.012;7.862;2023-05-07T08:43:07;5.30;;;2.60;;
12302;SDS011;6214;48.012;7.862;2023-05-07T08:45:34;5.05;;;2.20;;
12302;SDS011;6214;48.012;7.862;2023-05-07T08:48:05;4.80;;;2.30;;
12302;SDS011;6214;48.012;7.862;2023-05-07T08:50:41;4.70;;;2.25;;
12302;SDS011;6214;48.012;7.862;2023-05-07T08:53:09;4.45;;;2.10;;
12302;SDS011;6214;48.012;7.862;2023-05-07T08:55:36;5.00;;;2.40;;
12302;SDS011;6214;48.012;7.862;2023-05-07T08:58:03;4.63;;;2.20;;
12302;SDS011;6214;48.012;7.862;2023-05-07T09:00:30;4.50;;;2.10;;
12302;SDS011;6214;48.012;7.862;2023-05-07T09:02:58;4.67;;;2.20;;
12302;SDS011;6214;48.012;7.862;2023-05-07T09:05:27;4.50;;;1.90;;
12302;SDS011;6214;48.012;7.862;2023-05-07T09:07:54;4.93;;;2.40;;
12302;SDS011;6214;48.012;7.862;2023-05-07T09:10:23;4.50;;;2.30;;
12302;SDS011;6214;48.012;7.862;2023-05-07T09:12:52;5.10;;;2.50;;
12302;SDS011;6214;48.012;7.862;2023-05-07T09:15:19;4.70;;;2.40;;
12302;SDS011;6214;48.012;7.862;2023-05-07T09:17:46;5.10;;;2.30;;
12302;SDS011;6214;48.012;7.862;2023-05-07T09:20:13;5.90;;;2.20;;
12302;SDS011;6214;48.012;7.862;2023-05-07T09:22:40;5.50;;;2.30;;
12302;SDS011;6214;48.012;7.862;2023-05-07T09:25:08;5.35;;;2.70;;
12302;SDS011;6214;48.012;7.862;2023-05-07T09:27:36;5.30;;;2.60;;
12302;SDS011;6214;48.012;7.862;2023-05-07T09:30:04;4.88;;;2.75;;
12302;SDS011;6214;48.012;7.862;2023-05-07T09:32:36;5.57;;;3.00;;
12302;SDS011;6214;48.012;7.862;2023-05-07T09:35:09;5.57;;;2.88;;
12302;SDS011;6214;48.012;7.862;2023-05-07T09:37:42;4.90;;;2.50;;
12302;SDS011;6214;48.012;7.862;2023-05-07T09:40:19;4.77;;;2.43;;
12302;SDS011;6214;48.012;7.862;2023-05-07T09:42:50;5.65;;;2.30;;
12302;SDS011;6214;48.012;7.862;2023-05-07T09:47:55;5.10;;;2.50;;
12302;SDS011;6214;48.012;7.862;2023-05-07T09:50:25;4.90;;;2.40;;
12302;SDS011;6214;48.012;7.862;2023-05-07T09:52:57;5.60;;;2.63;;
12302;SDS011;6214;48.012;7.862;2023-05-07T09:55:24;5.70;;;2.60;;
12302;SDS011;6214;48.012;7.862;2023-05-07T09:57:52;4.70;;;2.20;;
12302;SDS011;6214;48.012;7.862;2023-05-07T10:00:20;5.55;;;2.60;;
12302;SDS011;6214;48.012;7.862;2023-05-07T10:02:49;4.60;;;2.17;;
12302;SDS011;6214;48.012;7.862;2023-05-07T10:05:19;5.40;;;2.80;;
12302;SDS011;6214;48.012;7.862;2023-05-07T10:07:49;4.88;;;2.60;;
12302;SDS011;6214;48.012;7.862;2023-05-07T10:10:17;5.75;;;2.55;;
12302;SDS011;6214;48.012;7.862;2023-05-07T10:12:44;5.10;;;2.38;;
12302;SDS011;6214;48.012;7.862;2023-05-07T10:15:12;5.05;;;2.20;;
12302;SDS011;6214;48.012;7.862;2023-05-07T10:17:41;5.60;;;2.80;;
12302;SDS011;6214;48.012;7.862;2023-05-07T10:20:09;5.95;;;2.42;;
12302;SDS011;6214;48.012;7.862;2023-05-07T10:22:48;6.70;;;2.58;;
12302;SDS011;6214;48.012;7.862;2023-05-07T10:25:18;5.32;;;2.60;;
12302;SDS011;6214;48.012;7.862;2023-05-07T10:27:49;5.00;;;2.30;;
12302;SDS011;6214;48.012;7.862;2023-05-07T10:33:04;5.28;;;2.25;;
12302;SDS011;6214;48.012;7.862;2023-05-07T10:35:38;5.22;;;2.53;;
12302;SDS011;6214;48.012;7.862;2023-05-07T10:38:09;5.60;;;2.65;;
12302;SDS011;6214;48.012;7.862;2023-05-07T10:40:36;6.68;;;2.97;;
12302;SDS011;6214;48.012;7.862;2023-05-07T10:43:04;5.43;;;2.70;;
12302;SDS011;6214;48.012;7.862;2023-05-07T10:45:36;6.10;;;3.00;;
12302;SDS011;6214;48.012;7.862;2023-05-07T10:48:12;5.47;;;2.70;;
12302;SDS011;6214;48.012;7.862;2023-05-07T10:50:44;5.65;;;2.80;;
12302;SDS011;6214;48.012;7.862;2023-05-07T11:00:58;5.80;;;2.90;;
12302;SDS011;6214;48.012;7.862;2023-05-07T11:03:28;5.60;;;3.00;;
12302;SDS011;6214;48.012;7.862;2023-05-07T11:06:11;5.95;;;2.70;;
12302;SDS011;6214;48.012;7.862;2023-05-07T11:11:18;5.70;;;2.80;;
12302;SDS011;6214;48.012;7.862;2023-05-07T11:13:48;5.20;;;2.88;;
12302;SDS011;6214;48.012;7.862;2023-05-07T11:18:47;5.00;;;2.70;;
12302;SDS011;6214;48.012;7.862;2023-05-07T11:24:04;5.32;;;2.63;;
12302;SDS011;6214;48.012;7.862;2023-05-07T11:29:16;6.95;;;3.15;;
12302;SDS011;6214;48.012;7.862;2023-05-07T11:31:48;5.40;;;2.80;;
12302;SDS011;6214;48.012;7.862;2023-05-07T11:37:08;5.63;;;2.45;;
12302;SDS011;6214;48.012;7.862;2023-05-07T11:39:36;5.40;;;2.50;;
12302;SDS011;6214;48.012;7.862;2023-05-07T11:42:03;5.00;;;2.40;;
12302;SDS011;6214;48.012;7.862;2023-05-07T11:44:45;5.40;;;2.40;;
12302;SDS011;6214;48.012;7.862;2023-05-07T11:47:19;5.07;;;2.30;;
12302;SDS011;6214;48.012;7.862;2023-05-07T11:49:50;4.80;;;2.30;;
12302;SDS011;6214;48.012;7.862;2023-05-07T11:52:19;4.80;;;2.40;;
12302;SDS011;6214;48.012;7.862;2023-05-07T11:57:24;4.90;;;2.20;;
12302;SDS011;6214;48.012;7.862;2023-05-07T11:59:58;5.00;;;2.35;;
12302;SDS011;6214;48.012;7.862;2023-05-07T12:02:28;5.13;;;2.20;;
12302;SDS011;6214;48.012;7.862;2023-05-07T12:04:55;5.10;;;2.40;;
12302;SDS011;6214;48.012;7.862;2023-05-07T12:07:23;5.60;;;2.50;;
12302;SDS011;6214;48.012;7.862;2023-05-07T12:09:51;6.10;;;2.50;;
12302;SDS011;6214;48.012;7.862;2023-05-07T12:12:18;4.97;;;2.40;;
12302;SDS011;6214;48.012;7.862;2023-05-07T12:14:46;5.50;;;2.20;;
12302;SDS011;6214;48.012;7.862;2023-05-07T12:17:13;4.60;;;2.10;;
12302;SDS011;6214;48.012;7.862;2023-05-07T12:19:41;4.60;;;2.20;;
12302;SDS011;6214;48.012;7.862;2023-05-07T12:22:11;5.78;;;2.55;;
12302;SDS011;6214;48.012;7.862;2023-05-07T12:24:45;6.00;;;2.50;;
12302;SDS011;6214;48.012;7.862;2023-05-07T12:27:14;5.53;;;2.67;;
12302;SDS011;6214;48.012;7.862;2023-05-07T12:29:45;4.93;;;2.53;;
12302;SDS011;6214;48.012;7.862;2023-05-07T12:32:15;5.50;;;2.80;;
12302;SDS011;6214;48.012;7.862;2023-05-07T12:34:44;6.78;;;3.15;;
12302;SDS011;6214;48.012;7.862;2023-05-07T12:37:12;5.47;;;2.70;;
12302;SDS011;6214;48.012;7.862;2023-05-07T12:39:49;5.32;;;2.58;;
12302;SDS011;6214;48.012;7.862;2023-05-07T12:42:32;6.10;;;2.80;;
12302;SDS011;6214;48.012;7.862;2023-05-07T12:45:11;5.00;;;2.60;;
12302;SDS011;6214;48.012;7.862;2023-05-07T12:47:43;5.70;;;2.70;;
12302;SDS011;6214;48.012;7.862;2023-05-07T12:50:14;5.60;;;2.50;;
12302;SDS011;6214;48.012;7.862;2023-05-07T12:52:43;5.20;;;2.90;;
12302;SDS011;6214;48.012;7.862;2023-05-07T12:55:12;5.53;;;2.97;;
12302;SDS011;6214;48.012;7.862;2023-05-07T12:57:42;6.03;;;2.90;;
12302;SDS011;6214;48.012;7.862;2023-05-07T13:00:10;5.80;;;2.78;;
12302;SDS011;6214;48.012;7.862;2023-05-07T13:02:38;6.55;;;3.30;;
12302;SDS011;6214;48.012;7.862;2023-05-07T13:05:06;6.00;;;3.10;;
12302;SDS011;6214;48.012;7.862;2023-05-07T13:07:35;5.35;;;2.83;;
12302;SDS011;6214;48.012;7.862;2023-05-07T13:10:03;6.22;;;3.00;;
12302;SDS011;6214;48.012;7.862;2023-05-07T13:12:31;5.47;;;3.00;;
12302;SDS011;6214;48.012;7.862;2023-05-07T13:14:58;6.30;;;2.90;;
12302;SDS011;6214;48.012;7.862;2023-05-07T13:17:25;5.60;;;3.00;;
12302;SDS011;6214;48.012;7.862;2023-05-07T13:19:52;5.23;;;2.83;;
12302;SDS011;6214;48.012;7.862;2023-05-07T13:22:19;5.10;;;2.50;;
12302;SDS011;6214;48.012;7.862;2023-05-07T13:24:46;5.15;;;2.30;;
12302;SDS011;6214;48.012;7.862;2023-05-07T13:27:13;5.15;;;2.30;;
12302;SDS011;6214;48.012;7.862;2023-05-07T13:29:40;5.10;;;2.30;;
12302;SDS011;6214;48.012;7.862;2023-05-07T13:32:07;5.27;;;2.60;;
12302;SDS011;6214;48.012;7.862;2023-05-07T13:34:34;5.10;;;2.60;;
12302;SDS011;6214;48.012;7.862;2023-05-07T13:37:03;5.90;;;2.57;;
12302;SDS011;6214;48.012;7.862;2023-05-07T13:39:30;4.90;;;2.55;;
12302;SDS011;6214;48.012;7.862;2023-05-07T13:41:57;5.85;;;2.50;;
12302;SDS011;6214;48.012;7.862;2023-05-07T13:44:25;5.65;;;2.60;;
12302;SDS011;6214;48.012;7.862;2023-05-07T13:46:52;5.68;;;2.60;;
12302;SDS011;6214;48.012;7.862;2023-05-07T13:49:20;5.50;;;2.75;;
12302;SDS011;6214;48.012;7.862;2023-05-07T13:51:47;5.30;;;2.70;;
12302;SDS011;6214;48.012;7.862;2023-05-07T13:54:14;5.97;;;2.88;;
12302;SDS011;6214;48.012;7.862;2023-05-07T13:56:42;5.43;;;2.80;;
12302;SDS011;6214;48.012;7.862;2023-05-07T13:59:09;5.40;;;2.50;;
12302;SDS011;6214;48.012;7.862;2023-05-07T14:01:36;6.00;;;2.83;;
12302;SDS011;6214;48.012;7.862;2023-05-07T14:04:03;5.55;;;2.50;;
12302;SDS011;6214;48.012;7.862;2023-05-07T14:06:30;5.30;;;2.40;;
12302;SDS011;6214;48.012;7.862;2023-05-07T14:08:57;5.63;;;2.70;;
12302;SDS011;6214;48.012;7.862;2023-05-07T14:11:25;6.50;;;2.63;;
12302;SDS011;6214;48.012;7.862;2023-05-07T14:13:52;5.30;;;2.40;;
12302;SDS011;6214;48.012;7.862;2023-05-07T14:16:19;5.20;;;2.80;;
12302;SDS011;6214;48.012;7.862;2023-05-07T14:18:46;5.70;;;2.38;;
12302;SDS011;6214;48.012;7.862;2023-05-07T14:21:13;4.70;;;2.30;;
12302;SDS011;6214;48.012;7.862;2023-05-07T14:23:40;5.10;;;2.10;;
12302;SDS011;6214;48.012;7.862;2023-05-07T14:26:07;4.70;;;2.30;;
12302;SDS011;6214;48.012;7.862;2023-05-07T14:28:35;4.60;;;2.00;;
12302;SDS011;6214;48.012;7.862;2023-05-07T14:31:02;4.88;;;2.05;;
12302;SDS011;6214;48.012;7.862;2023-05-07T14:33:29;5.10;;;1.98;;
12302;SDS011;6214;48.012;7.862;2023-05-07T14:35:56;6.18;;;2.17;;
12302;SDS011;6214;48.012;7.862;2023-05-07T14:38:23;4.90;;;2.20;;
12302;SDS011;6214;48.012;7.862;2023-05-07T14:40:50;4.57;;;1.90;;
12302;SDS011;6214;48.012;7.862;2023-05-07T14:43:18;4.68;;;1.70;;
12302;SDS011;6214;48.012;7.862;2023-05-07T14:45:45;5.10;;;1.90;;
12302;SDS011;6214;48.012;7.862;2023-05-07T14:48:12;4.60;;;1.80;;
12302;SDS011;6214;48.012;7.862;2023-05-07T14:50:41;5.23;;;1.90;;
12302;SDS011;6214;48.012;7.862;2023-05-07T14:53:09;4.28;;;1.70;;
12302;SDS011;6214;48.012;7.862;2023-05-07T14:55:36;4.10;;;1.50;;
12302;SDS011;6214;48.012;7.862;2023-05-07T14:58:03;4.97;;;1.50;;
12302;SDS011;6214;48.012;7.862;2023-05-07T15:00:30;4.57;;;1.25;;
12302;SDS011;6214;48.012;7.862;2023-05-07T15:03:05;3.80;;;1.10;;
12302;SDS011;6214;48.012;7.862;2023-05-07T15:05:33;4.18;;;1.20;;
12302;SDS011;6214;48.012;7.862;2023-05-07T15:08:01;4.13;;;1.20;;
12302;SDS011;6214;48.012;7.862;2023-05-07T15:10:28;4.65;;;1.30;;
12302;SDS011;6214;48.012;7.862;2023-05-07T15:12:56;4.10;;;1.33;;
12302;SDS011;6214;48.012;7.862;2023-05-07T15:15:23;4.68;;;1.35;;
12302;SDS011;6214;48.012;7.862;2023-05-07T15:17:50;4.07;;;1.33;;
12302;SDS011;6214;48.012;7.862;2023-05-07T15:20:17;4.18;;;1.40;;
12302;SDS011;6214;48.012;7.862;2023-05-07T15:22:44;4.25;;;1.30;;
12302;SDS011;6214;48.012;7.862;2023-05-07T15:25:11;4.13;;;1.30;;
12302;SDS011;6214;48.012;7.862;2023-05-07T15:27:38;4.60;;;1.40;;
12302;SDS011;6214;48.012;7.862;2023-05-07T15:30:05;4.30;;;1.60;;
12302;SDS011;6214;48.012;7.862;2023-05-07T15:32:33;4.80;;;2.20;;
12302;SDS011;6214;48.012;7.862;2023-05-07T15:35:01;4.40;;;1.58;;
12302;SDS011;6214;48.012;7.862;2023-05-07T15:37:28;3.90;;;1.30;;